Terminal Aerodrome Forecast
Issued by NWS Wilmington, OH

Current Version | Previous Version | Text Only | Print | Product List | Glossary Off
Versions: 1 2 3 4 5 6 7 8 9 10 11 12 13 14 15 16 17 18 19 20 21

359
FTUS41 KILN 211501 AAA
TAFCVG
TAF AMD
KCVG 211501Z 2115/2218 35005KT P6SM VCSH OVC008
     FM211700 34012KT P6SM VCSH SCT008 OVC012
     FM211900 35012G20KT P6SM VCSH SCT020 BKN035
     FM220000 35006KT P6SM SCT060=

USA.gov is the U.S. government's official web portal to all federal, state and local government web resources and services.